createdAt,value
2018-01-15T00:01:00.949Z,12.80
2018-01-15T00:03:29.973Z,14.93
2018-01-15T00:05:58.261Z,14.10
2018-01-15T00:08:27.334Z,13.40
2018-01-15T00:10:55.602Z,9.80
2018-01-15T00:13:23.863Z,14.37
2018-01-15T00:15:52.149Z,12.37
2018-01-15T00:18:20.404Z,12.77
2018-01-15T00:20:49.427Z,14.83
2018-01-15T00:23:18.476Z,11.17
2018-01-15T00:25:46.727Z,12.63
2018-01-15T00:28:14.997Z,8.63
2018-01-15T00:30:44.032Z,11.70
2018-01-15T00:33:12.356Z,14.37
2018-01-15T00:35:40.664Z,11.57
2018-01-15T00:38:09.819Z,10.37
2018-01-15T00:40:38.124Z,10.70
2018-01-15T00:43:06.461Z,16.60
2018-01-15T00:45:35.498Z,11.03
2018-01-15T00:48:03.764Z,16.50
2018-01-15T00:50:32.794Z,10.53
2018-01-15T00:53:01.084Z,11.00
2018-01-15T00:55:30.108Z,12.47
2018-01-15T00:57:58.428Z,11.90
2018-01-15T01:00:26.700Z,12.47
2018-01-15T01:02:54.975Z,15.93
2018-01-15T01:05:23.237Z,12.63
2018-01-15T01:07:52.271Z,12.50
2018-01-15T01:10:20.528Z,13.90
2018-01-15T01:12:50.082Z,15.57
2018-01-15T01:15:18.347Z,14.90
2018-01-15T01:17:46.634Z,13.67
2018-01-15T01:20:15.667Z,14.57
2018-01-15T01:22:43.951Z,13.03
2018-01-15T01:25:12.236Z,12.67
2018-01-15T01:27:40.577Z,11.83
2018-01-15T01:30:08.906Z,15.33
2018-01-15T01:32:37.813Z,12.57
2018-01-15T01:35:06.067Z,15.90
2018-01-15T01:37:34.347Z,16.90
2018-01-15T01:40:02.617Z,14.70
2018-01-15T01:42:30.893Z,13.50
2018-01-15T01:44:59.176Z,14.70
2018-01-15T01:47:27.483Z,13.63
2018-01-15T01:49:55.694Z,12.60
2018-01-15T01:52:23.947Z,16.20
2018-01-15T01:54:52.220Z,14.50
2018-01-15T01:57:20.491Z,18.63
2018-01-15T01:59:49.523Z,11.73
2018-01-15T02:02:17.794Z,12.27
2018-01-15T02:04:46.815Z,15.17
2018-01-15T02:07:15.067Z,13.13
2018-01-15T02:09:44.577Z,13.20
2018-01-15T02:12:12.853Z,15.87
2018-01-15T02:14:41.239Z,19.57
2018-01-15T02:17:09.592Z,15.63
2018-01-15T02:19:37.885Z,15.77
2018-01-15T02:22:06.164Z,14.97
2018-01-15T02:24:35.283Z,13.57
2018-01-15T02:27:03.540Z,16.50
2018-01-15T02:29:32.584Z,16.40
2018-01-15T02:32:00.840Z,14.83
2018-01-15T02:34:29.943Z,19.47
2018-01-15T02:36:58.976Z,13.47
2018-01-15T02:39:27.296Z,16.67
2018-01-15T02:41:55.573Z,18.57
2018-01-15T02:44:23.842Z,18.03
2018-01-15T02:46:52.108Z,16.47
2018-01-15T02:49:21.154Z,18.83
2018-01-15T02:51:49.416Z,16.23
2018-01-15T02:54:18.451Z,20.67
2018-01-15T02:56:46.704Z,18.83
2018-01-15T02:59:15.751Z,18.17
2018-01-15T03:01:44.095Z,15.03
2018-01-15T03:04:12.466Z,16.47
2018-01-15T03:06:41.611Z,20.70
2018-01-15T03:09:10.000Z,18.27
2018-01-15T03:11:38.524Z,18.50
2018-01-15T03:14:07.638Z,16.77
2018-01-15T03:16:35.928Z,19.60
2018-01-15T03:19:04.202Z,17.03
2018-01-15T03:21:32.450Z,22.00
2018-01-15T03:24:02.485Z,16.97
2018-01-15T03:26:30.747Z,15.10
2018-01-15T03:28:59.024Z,16.07
2018-01-15T03:31:27.343Z,19.97
2018-01-15T03:33:56.418Z,17.50
2018-01-15T03:36:24.695Z,20.47
2018-01-15T03:38:52.958Z,16.47
2018-01-15T03:41:21.983Z,16.43
2018-01-15T03:43:50.266Z,17.93
2018-01-15T03:46:18.531Z,19.80
2018-01-15T03:48:47.566Z,18.47
2018-01-15T03:51:15.833Z,17.10
2018-01-15T03:53:44.867Z,22.13
2018-01-15T03:56:13.186Z,19.80
2018-01-15T03:58:41.538Z,21.60
2018-01-15T04:01:09.887Z,18.73
2018-01-15T04:03:38.999Z,19.27
2018-01-15T04:06:08.139Z,18.97
2018-01-15T04:08:36.450Z,19.90
2018-01-15T04:11:04.742Z,21.93
2018-01-15T04:13:33.003Z,20.27
2018-01-15T04:16:01.280Z,20.53
2018-01-15T04:18:30.291Z,17.50
2018-01-15T04:20:59.309Z,15.87
2018-01-15T04:23:27.566Z,17.50
2018-01-15T04:25:55.835Z,17.00
2018-01-15T04:28:24.091Z,21.50
2018-01-15T04:30:52.363Z,24.53
2018-01-15T04:33:20.619Z,21.43
2018-01-15T04:35:48.888Z,16.87
2018-01-15T04:38:17.136Z,20.67
2018-01-15T04:40:45.400Z,21.93
2018-01-15T04:43:14.415Z,25.07
2018-01-15T04:45:43.465Z,24.13
2018-01-15T04:48:11.736Z,23.93
2018-01-15T04:50:41.037Z,16.77
2018-01-15T04:53:09.351Z,20.70
2018-01-15T04:55:37.708Z,18.17
2018-01-15T04:58:06.001Z,19.77
2018-01-15T05:00:35.019Z,22.77
2018-01-15T05:03:03.291Z,19.77
2018-01-15T05:05:32.303Z,22.80
2018-01-15T05:08:00.607Z,18.20
2018-01-15T05:10:28.869Z,18.37
2018-01-15T05:12:57.933Z,18.60
2018-01-15T05:15:26.219Z,18.73
2018-01-15T05:17:54.483Z,17.37
2018-01-15T05:20:22.730Z,17.67
2018-01-15T05:22:51.759Z,17.33
2018-01-15T05:25:20.878Z,13.63
2018-01-15T05:27:49.135Z,22.37
2018-01-15T05:30:18.158Z,19.07
2018-01-15T05:32:47.183Z,17.27
2018-01-15T05:35:15.940Z,17.87
2018-01-15T05:37:44.213Z,21.77
2018-01-15T05:40:12.475Z,23.13
2018-01-15T05:42:40.790Z,21.97
2018-01-15T05:45:09.061Z,15.33
2018-01-15T05:47:37.351Z,17.73
2018-01-15T05:50:05.975Z,17.43
2018-01-15T05:52:34.240Z,21.27
2018-01-15T05:55:02.521Z,15.00
2018-01-15T05:57:30.791Z,16.53
2018-01-15T05:59:59.051Z,18.00
2018-01-15T06:02:27.482Z,17.63
2018-01-15T06:04:55.728Z,14.73
2018-01-15T06:07:24.772Z,16.20
2018-01-15T06:09:53.028Z,16.97
2018-01-15T06:12:21.299Z,20.53
2018-01-15T06:14:49.550Z,15.70
2018-01-15T06:17:17.820Z,13.63
2018-01-15T06:19:46.079Z,13.33
2018-01-15T06:22:14.666Z,14.07
2018-01-15T06:24:42.955Z,21.30
2018-01-15T06:27:11.277Z,16.10
2018-01-15T06:29:40.368Z,15.23
2018-01-15T06:32:08.691Z,18.60
2018-01-15T06:34:36.998Z,17.93
2018-01-15T06:37:05.272Z,16.63
2018-01-15T06:39:33.543Z,16.20
2018-01-15T06:42:02.563Z,18.87
2018-01-15T06:44:30.955Z,15.60
2018-01-15T06:46:59.203Z,15.87
2018-01-15T06:49:27.506Z,16.43
2018-01-15T06:51:55.776Z,17.70
2018-01-15T06:54:24.025Z,13.47
2018-01-15T06:56:52.271Z,13.73
2018-01-15T06:59:21.367Z,16.03
2018-01-15T07:01:49.619Z,17.50
2018-01-15T07:04:17.884Z,19.50
2018-01-15T07:06:46.153Z,16.70
2018-01-15T07:09:15.177Z,13.97
2018-01-15T07:11:43.427Z,13.27
2018-01-15T07:14:11.700Z,16.73
2018-01-15T07:16:40.000Z,13.70
2018-01-15T07:19:08.284Z,17.27
2018-01-15T07:21:37.995Z,12.10
2018-01-15T07:24:06.275Z,14.30
2018-01-15T07:26:34.536Z,20.73
2018-01-15T07:29:02.815Z,16.27
2018-01-15T07:31:31.835Z,12.90
2018-01-15T07:34:00.121Z,13.83
2018-01-15T07:36:29.135Z,15.20
2018-01-15T07:38:57.443Z,15.90
2018-01-15T07:41:25.703Z,18.80
2018-01-15T07:43:53.987Z,14.83
2018-01-15T07:46:22.244Z,13.87
2018-01-15T07:48:50.536Z,16.40
2018-01-15T07:51:18.781Z,16.03
2018-01-15T07:53:47.048Z,11.50
2018-01-15T07:56:16.074Z,13.97
2018-01-15T07:58:45.574Z,15.20
2018-01-15T08:01:14.605Z,15.27
2018-01-15T08:03:42.877Z,13.93
2018-01-15T08:06:11.161Z,15.13
2018-01-15T08:08:40.294Z,17.70
2018-01-15T08:11:08.711Z,13.93
2018-01-15T08:13:37.078Z,16.87
2018-01-15T08:16:05.357Z,16.30
2018-01-15T08:18:33.595Z,18.87
2018-01-15T08:21:02.636Z,15.57
2018-01-15T08:23:30.910Z,12.07
2018-01-15T08:25:59.933Z,14.77
2018-01-15T08:28:28.205Z,14.60
2018-01-15T08:30:57.256Z,16.57
2018-01-15T08:33:25.535Z,14.47
2018-01-15T08:35:53.793Z,19.40
2018-01-15T08:38:22.798Z,16.83
2018-01-15T08:40:51.824Z,16.40
2018-01-15T08:43:20.122Z,14.30
2018-01-15T08:45:48.387Z,14.17
2018-01-15T08:48:17.411Z,13.57
2018-01-15T08:50:45.672Z,14.93
2018-01-15T08:53:14.690Z,13.83
2018-01-15T08:55:43.738Z,14.73
2018-01-15T08:58:12.000Z,14.93
2018-01-15T09:00:40.308Z,11.50
2018-01-15T09:03:08.603Z,16.03
2018-01-15T09:05:36.871Z,13.60
2018-01-15T09:08:05.124Z,13.80
2018-01-15T09:10:34.155Z,14.53
2018-01-15T09:13:02.411Z,14.20
2018-01-15T09:15:30.688Z,14.43
2018-01-15T09:17:58.948Z,13.00
2018-01-15T09:20:27.988Z,11.70
2018-01-15T09:22:56.278Z,14.93
2018-01-15T09:25:24.523Z,13.77
2018-01-15T09:27:52.778Z,9.77
2018-01-15T09:30:21.799Z,15.20
2018-01-15T09:32:50.056Z,13.13
2018-01-15T09:35:18.300Z,16.97
2018-01-15T09:37:46.576Z,14.07
2018-01-15T09:40:14.823Z,15.73
2018-01-15T09:42:43.105Z,17.93
2018-01-15T09:45:11.376Z,13.87
2018-01-15T09:47:40.419Z,13.00
2018-01-15T09:50:08.694Z,15.37
2018-01-15T09:52:36.975Z,12.33
2018-01-15T09:55:05.219Z,14.07
2018-01-15T09:57:33.478Z,15.13
2018-01-15T10:00:02.608Z,12.00
2018-01-15T10:02:31.621Z,12.77
2018-01-15T10:04:59.882Z,17.03
2018-01-15T10:07:28.916Z,15.10
2018-01-15T10:09:57.199Z,13.13
2018-01-15T10:12:25.443Z,12.47
2018-01-15T10:14:53.720Z,13.83
2018-01-15T10:17:21.964Z,12.73
2018-01-15T10:19:51.003Z,12.27
2018-01-15T10:22:19.247Z,11.30
2018-01-15T10:24:48.287Z,10.40
2018-01-15T10:27:16.580Z,13.47
2018-01-15T10:29:44.835Z,10.57
2018-01-15T10:32:13.979Z,13.60
2018-01-15T10:34:42.272Z,11.43
2018-01-15T10:37:10.556Z,11.17
2018-01-15T10:39:38.926Z,10.80
2018-01-15T10:42:07.208Z,13.93
2018-01-15T10:44:35.468Z,10.63
2018-01-15T10:47:06.290Z,13.40
2018-01-15T10:49:34.579Z,11.83
2018-01-15T10:52:02.847Z,9.10
2018-01-15T10:54:31.092Z,12.37
2018-01-15T10:56:59.363Z,11.40
2018-01-15T10:59:27.626Z,9.87
2018-01-15T11:01:56.694Z,14.70
2018-01-15T11:04:25.711Z,9.93
2018-01-15T11:06:54.003Z,8.93
2018-01-15T11:09:22.263Z,8.97
2018-01-15T11:11:50.551Z,11.20
2018-01-15T11:14:18.775Z,9.20
2018-01-15T11:16:47.046Z,10.37
2018-01-15T11:19:15.363Z,10.93
2018-01-15T11:21:43.607Z,8.27
2018-01-15T11:24:12.680Z,10.90
2018-01-15T11:26:40.947Z,10.70
2018-01-15T11:29:09.325Z,11.13
2018-01-15T11:31:37.618Z,10.57
2018-01-15T11:34:05.875Z,9.60
2018-01-15T11:36:34.880Z,11.60
2018-01-15T11:39:03.902Z,12.07
2018-01-15T11:41:32.157Z,11.40
2018-01-15T11:44:00.425Z,11.97
2018-01-15T11:46:28.684Z,11.00
2018-01-15T11:48:56.962Z,10.07
2018-01-15T11:51:25.215Z,9.37
2018-01-15T11:53:53.495Z,9.73
2018-01-15T11:56:21.739Z,9.40
2018-01-15T11:58:50.002Z,11.70
2018-01-15T12:01:18.271Z,12.53
2018-01-15T12:03:46.551Z,10.07
2018-01-15T12:06:14.815Z,12.93
2018-01-15T12:08:43.120Z,8.93
2018-01-15T12:11:11.336Z,11.63
2018-01-15T12:13:39.611Z,9.90
2018-01-15T12:16:09.374Z,8.63
2018-01-15T12:18:37.683Z,9.13
2018-01-15T12:21:06.725Z,10.83
2018-01-15T12:23:35.006Z,10.80
2018-01-15T12:26:03.276Z,9.73
2018-01-15T12:28:31.551Z,11.13
2018-01-15T12:30:59.811Z,10.57
2018-01-15T12:33:28.069Z,9.60
2018-01-15T12:35:56.339Z,13.63
2018-01-15T12:38:24.614Z,10.17
2018-01-15T12:40:52.915Z,11.27
2018-01-15T12:43:21.160Z,8.23
2018-01-15T12:45:50.178Z,8.53
2018-01-15T12:48:18.433Z,9.27
2018-01-15T12:50:46.724Z,10.57
2018-01-15T12:53:14.982Z,8.17
2018-01-15T12:55:43.264Z,11.47
2018-01-15T12:58:11.503Z,9.47
2018-01-15T13:00:40.534Z,9.93
2018-01-15T13:03:08.791Z,9.53
2018-01-15T13:05:49.745Z,9.60
2018-01-15T13:08:35.514Z,9.07
2018-01-15T13:11:03.806Z,8.53
2018-01-15T13:13:32.086Z,7.60
2018-01-15T13:16:00.373Z,13.17
2018-01-15T13:18:29.404Z,8.87
2018-01-15T13:20:57.672Z,10.20
2018-01-15T13:23:25.936Z,8.47
2018-01-15T13:25:54.191Z,10.37
2018-01-15T13:28:22.443Z,7.60
2018-01-15T13:30:50.704Z,13.50
2018-01-15T13:33:18.959Z,13.20
2018-01-15T13:35:47.244Z,11.87
2018-01-15T13:38:15.532Z,10.47
2018-01-15T13:40:43.835Z,11.50
2018-01-15T13:43:12.079Z,10.37
2018-01-15T13:45:40.339Z,9.87
2018-01-15T13:48:08.590Z,11.90
2018-01-15T13:50:36.899Z,11.30
2018-01-15T13:53:05.155Z,13.77
2018-01-15T13:55:34.263Z,11.67
2018-01-15T13:58:02.628Z,10.87
2018-01-15T14:00:30.892Z,9.23
2018-01-15T14:02:59.162Z,12.40
2018-01-15T14:05:27.433Z,11.90
2018-01-15T14:07:55.720Z,10.53
2018-01-15T14:10:23.973Z,10.23
2018-01-15T14:12:52.236Z,9.17
2018-01-15T14:15:21.246Z,12.47
2018-01-15T14:17:50.277Z,16.43
2018-01-15T14:20:18.518Z,10.23
2018-01-15T14:22:46.776Z,11.77
2018-01-15T14:25:15.041Z,12.90
2018-01-15T14:27:43.303Z,11.43
2018-01-15T14:30:11.570Z,11.40
2018-01-15T14:32:41.343Z,10.77
2018-01-15T14:35:09.612Z,10.80
2018-01-15T14:37:38.692Z,9.57
2018-01-15T14:40:06.936Z,12.00
2018-01-15T14:42:35.210Z,13.60
2018-01-15T14:45:03.487Z,10.87
2018-01-15T14:47:32.515Z,8.93
2018-01-15T14:50:00.803Z,7.40
2018-01-15T14:52:29.823Z,7.67
2018-01-15T14:54:58.115Z,7.33
2018-01-15T14:57:26.379Z,8.50
2018-01-15T14:59:55.395Z,10.10
2018-01-15T15:02:23.672Z,8.90
2018-01-15T15:04:52.679Z,8.13
2018-01-15T15:07:21.703Z,6.87
2018-01-15T15:09:49.967Z,7.67
2018-01-15T15:12:19.004Z,7.17
2018-01-15T15:14:47.280Z,10.00
2018-01-15T15:17:15.756Z,8.83
2018-01-15T15:19:43.939Z,8.37
2018-01-15T15:22:12.967Z,8.87
2018-01-15T15:24:41.224Z,10.50
2018-01-15T15:27:09.500Z,7.60
2018-01-15T15:29:37.746Z,6.70
2018-01-15T15:32:06.034Z,8.03
2018-01-15T15:34:35.095Z,10.37
2018-01-15T15:37:03.373Z,8.83
2018-01-15T15:39:31.617Z,9.57
2018-01-15T15:41:59.871Z,13.07
2018-01-15T15:44:28.126Z,11.73
2018-01-15T15:46:56.376Z,11.13
2018-01-15T15:49:24.640Z,12.80
2018-01-15T15:51:53.659Z,10.23
2018-01-15T15:54:22.713Z,13.33
2018-01-15T15:56:50.967Z,11.60
2018-01-15T15:59:19.292Z,10.50
2018-01-15T16:01:47.587Z,9.83
2018-01-15T16:04:15.852Z,11.10
2018-01-15T16:06:44.108Z,15.67
2018-01-15T16:09:13.228Z,11.17
2018-01-15T16:11:41.496Z,11.07
2018-01-15T16:14:10.561Z,11.40
2018-01-15T16:16:38.813Z,12.07
2018-01-15T16:19:07.086Z,12.10
2018-01-15T16:21:36.208Z,12.80
2018-01-15T16:24:04.972Z,11.77
2018-01-15T16:26:33.224Z,9.30
2018-01-15T16:29:01.471Z,13.43
2018-01-15T16:31:30.460Z,9.50
2018-01-15T16:33:58.705Z,10.47
2018-01-15T16:36:26.985Z,10.30
2018-01-15T16:38:55.269Z,8.77
2018-01-15T16:41:23.539Z,10.87
2018-01-15T16:43:52.565Z,9.47
2018-01-15T16:46:21.943Z,9.03
2018-01-15T16:48:50.215Z,10.03
2018-01-15T16:51:18.484Z,10.37
2018-01-15T16:53:46.761Z,10.07
2018-01-15T16:56:15.015Z,10.70
2018-01-15T16:58:43.274Z,6.83
2018-01-15T17:01:11.520Z,8.23
2018-01-15T17:03:39.791Z,7.17
2018-01-15T17:06:08.850Z,6.13
2018-01-15T17:08:37.120Z,6.83
2018-01-15T17:11:05.386Z,8.33
2018-01-15T17:13:33.655Z,8.13
2018-01-15T17:16:02.693Z,9.73
2018-01-15T17:18:30.963Z,8.43
2018-01-15T17:20:59.236Z,10.07
2018-01-15T17:23:28.246Z,9.17
2018-01-15T17:25:57.284Z,7.63
2018-01-15T17:28:25.535Z,7.47
2018-01-15T17:30:54.565Z,7.77
2018-01-15T17:33:22.814Z,7.87
2018-01-15T17:35:51.079Z,8.90
2018-01-15T17:38:19.358Z,6.87
2018-01-15T17:40:47.708Z,9.23
2018-01-15T17:43:16.788Z,8.60
2018-01-15T17:45:45.078Z,10.17
2018-01-15T17:48:13.323Z,10.97
2018-01-15T17:50:41.594Z,8.83
2018-01-15T17:53:09.872Z,8.47
2018-01-15T17:55:38.173Z,10.67
2018-01-15T17:58:06.427Z,9.33
2018-01-15T18:00:34.746Z,10.77
2018-01-15T18:03:02.989Z,8.37
2018-01-15T18:05:31.251Z,11.77
2018-01-15T18:07:59.490Z,8.63
2018-01-15T18:10:28.522Z,11.60
2018-01-15T18:12:56.777Z,9.00
2018-01-15T18:15:25.844Z,12.60
2018-01-15T18:17:54.100Z,11.80
2018-01-15T18:20:22.373Z,9.33
2018-01-15T18:22:51.414Z,9.77
2018-01-15T18:25:19.674Z,10.40
2018-01-15T18:27:48.698Z,9.80
2018-01-15T18:30:17.135Z,9.60
2018-01-15T18:32:45.398Z,10.70
2018-01-15T18:35:13.649Z,9.53
2018-01-15T18:37:42.715Z,9.73
2018-01-15T18:40:11.100Z,9.90
2018-01-15T18:42:39.386Z,9.60
2018-01-15T18:45:07.651Z,8.73
2018-01-15T18:47:35.913Z,8.63
2018-01-15T18:50:05.375Z,11.23
2018-01-15T18:52:33.655Z,8.07
2018-01-15T18:55:01.911Z,11.87
2018-01-15T18:57:31.028Z,10.07
2018-01-15T19:00:00.118Z,10.33
2018-01-15T19:02:29.199Z,10.10
2018-01-15T19:04:57.455Z,10.33
2018-01-15T19:07:25.728Z,9.97
2018-01-15T19:09:54.020Z,10.43
2018-01-15T19:12:22.306Z,12.20
2018-01-15T19:14:50.550Z,10.17
2018-01-15T19:17:18.838Z,10.70
2018-01-15T19:19:47.143Z,11.73
2018-01-15T19:22:16.217Z,8.60
2018-01-15T19:24:44.479Z,9.23
2018-01-15T19:27:12.823Z,12.80
2018-01-15T19:29:41.790Z,10.17
2018-01-15T19:32:10.115Z,8.60
2018-01-15T19:34:43.942Z,8.27
2018-01-15T19:40:10.385Z,9.00
2018-01-15T19:42:38.690Z,9.63
2018-01-15T19:45:12.383Z,10.57
2018-01-15T19:47:46.256Z,7.07
2018-01-15T19:50:20.964Z,7.13
2018-01-15T19:52:54.915Z,6.73
2018-01-15T19:55:28.633Z,6.93
2018-01-15T20:01:08.631Z,7.47
2018-01-15T20:03:42.501Z,6.50
2018-01-15T20:06:16.411Z,7.10
2018-01-15T20:08:50.171Z,7.70
2018-01-15T20:11:18.423Z,6.90
2018-01-15T20:13:46.689Z,7.33
2018-01-15T20:16:15.789Z,7.83
2018-01-15T20:18:44.912Z,5.70
2018-01-15T20:21:13.172Z,6.67
2018-01-15T20:23:41.446Z,5.47
2018-01-15T20:26:09.741Z,5.53
2018-01-15T20:28:38.079Z,6.70
2018-01-15T20:31:06.370Z,11.23
2018-01-15T20:33:34.680Z,6.07
2018-01-15T20:36:02.915Z,13.20
2018-01-15T20:38:32.047Z,7.47
2018-01-15T20:41:00.375Z,6.17
2018-01-15T20:43:28.763Z,5.70
2018-01-15T20:45:57.192Z,7.53
2018-01-15T20:48:25.496Z,5.83
2018-01-15T20:50:54.558Z,7.07
2018-01-15T20:53:22.871Z,6.53
2018-01-15T20:55:51.166Z,6.63
2018-01-15T20:58:19.485Z,4.80
2018-01-15T21:00:48.537Z,4.40
2018-01-15T21:03:16.878Z,5.63
2018-01-15T21:05:45.896Z,6.50
2018-01-15T21:08:14.999Z,3.13
2018-01-15T21:10:43.296Z,4.70
2018-01-15T21:13:11.624Z,4.87
2018-01-15T21:15:39.890Z,7.13
2018-01-15T21:18:08.163Z,4.13
2018-01-15T21:20:36.514Z,6.10
2018-01-15T21:23:04.758Z,4.17
2018-01-15T21:25:33.045Z,5.13
2018-01-15T21:28:01.294Z,3.83
2018-01-15T21:30:30.365Z,4.33
2018-01-15T21:32:58.674Z,3.80
2018-01-15T21:35:26.999Z,4.87
2018-01-15T21:37:55.996Z,5.70
2018-01-15T21:40:25.074Z,4.30
2018-01-15T21:42:53.379Z,4.53
2018-01-15T21:45:21.692Z,5.40
2018-01-15T21:47:50.011Z,6.20
2018-01-15T21:50:18.320Z,5.10
2018-01-15T21:52:46.579Z,5.20
2018-01-15T21:55:14.940Z,4.23
2018-01-15T21:57:44.008Z,4.33
2018-01-15T22:00:12.277Z,4.73
2018-01-15T22:02:40.523Z,4.60
2018-01-15T22:05:10.171Z,5.07
2018-01-15T22:07:38.493Z,4.13
2018-01-15T22:10:06.810Z,3.37
2018-01-15T22:12:35.181Z,5.17
2018-01-15T22:15:04.273Z,4.23
2018-01-15T22:17:32.680Z,3.10
2018-01-15T22:20:01.045Z,4.50
2018-01-15T22:22:29.318Z,3.20
2018-01-15T22:24:57.760Z,3.50
2018-01-15T22:27:26.644Z,2.53
2018-01-15T22:29:55.779Z,3.77
2018-01-15T22:32:24.384Z,3.50
2018-01-15T22:34:52.933Z,2.77
2018-01-15T22:37:22.142Z,4.13
2018-01-15T22:39:51.484Z,3.13
2018-01-15T22:42:21.638Z,3.37
2018-01-15T22:44:50.011Z,2.87
2018-01-15T22:47:19.075Z,6.10
2018-01-15T22:49:48.836Z,3.60
2018-01-15T22:52:17.425Z,3.13
2018-01-15T22:54:46.623Z,2.93
2018-01-15T22:57:15.638Z,2.47
2018-01-15T22:59:44.688Z,2.50
2018-01-15T23:02:12.928Z,2.93
2018-01-15T23:04:42.142Z,2.10
2018-01-15T23:07:11.154Z,3.07
2018-01-15T23:09:40.256Z,3.17
2018-01-15T23:12:09.280Z,2.33
2018-01-15T23:14:37.589Z,1.93
2018-01-15T23:17:05.868Z,2.43
2018-01-15T23:19:34.184Z,4.17
2018-01-15T23:22:02.752Z,2.30
2018-01-15T23:24:31.017Z,2.03
2018-01-15T23:27:00.041Z,2.10
2018-01-15T23:29:28.284Z,2.70
2018-01-15T23:31:56.562Z,2.27
2018-01-15T23:34:24.798Z,2.27
2018-01-15T23:36:53.055Z,1.70
2018-01-15T23:39:21.313Z,1.43
2018-01-15T23:41:49.571Z,2.03
2018-01-15T23:44:17.832Z,1.60
2018-01-15T23:46:46.105Z,2.07
2018-01-15T23:49:14.419Z,3.50
2018-01-15T23:51:42.804Z,1.83
2018-01-15T23:54:11.034Z,2.80
2018-01-15T23:56:39.296Z,1.50
2018-01-15T23:59:07.547Z,1.30
